Time;durP1;ratioP1;P1;durP2;ratioP2;P2;SDS_P1;SDS_P2;PMS_P1;PMS_P2;Temp;Humidity;BMP_temperature;BMP_pressure;BME280_temperature;BME280_humidity;BME280_pressure;Samples;Min_cycle;Max_cycle;Signal;HPM_P1;HPM_P2
2022/01/02 00:00:44;;;;;;;;;;;10.90;99.90;;;;;;5055572;28;19913;-80
2022/01/02 00:03:13;;;;;;;;;;;10.90;99.90;;;;;;5057476;28;19970;-80
2022/01/02 00:05:39;;;;;;;;;;;10.90;99.90;;;;;;5039813;28;19913;-82
2022/01/02 00:08:07;;;;;;;;;;;10.80;99.90;;;;;;5037507;28;19932;-80
2022/01/02 00:10:34;;;;;;;;;;;10.80;99.90;;;;;;5051862;28;19913;-80
2022/01/02 00:13:00;;;;;;;;;;;10.90;99.90;;;;;;5056184;28;19919;-79
2022/01/02 00:15:27;;;;;;;;;;;10.80;99.90;;;;;;5039292;28;19923;-79
2022/01/02 00:17:53;;;;;;;;;;;10.80;99.90;;;;;;5036170;28;19932;-79
2022/01/02 00:20:20;;;;;;;;;;;10.80;99.90;;;;;;5057510;28;19909;-80
2022/01/02 00:22:48;;;;;;;;;;;10.80;99.90;;;;;;5039875;28;19935;-79
2022/01/02 00:25:25;;;;;;;;;;;10.80;99.90;;;;;;5056539;28;19920;-80
2022/01/02 00:27:51;;;;;;;;;;;10.80;99.90;;;;;;5031157;28;20619;-80
2022/01/02 00:30:17;;;;;;;;;;;10.80;99.90;;;;;;5056103;28;19912;-79
2022/01/02 00:32:43;;;;;;;;;;;10.80;99.90;;;;;;5043894;28;19913;-80
2022/01/02 00:35:08;;;;;;;;;;;10.80;99.90;;;;;;5036946;28;20223;-79
2022/01/02 00:37:34;;;;;;;;;;;10.80;99.90;;;;;;5042075;28;19954;-80
2022/01/02 00:39:59;;;;;;;;;;;10.90;99.90;;;;;;5076788;28;20291;-79
2022/01/02 00:42:28;;;;;;;;;;;10.90;99.90;;;;;;5055860;28;19927;-80
2022/01/02 00:45:04;;;;;;;;;;;10.90;99.90;;;;;;5039100;28;19948;-80
2022/01/02 00:47:33;;;;;;;;;;;10.80;99.90;;;;;;5043343;28;19956;-80
2022/01/02 00:50:01;;;;;;;;;;;10.80;99.90;;;;;;5036898;28;19949;-80
2022/01/02 00:52:27;;;;;;;;;;;10.80;99.90;;;;;;5019260;28;19913;-80
2022/01/02 00:54:54;;;;;;;;;;;10.80;99.90;;;;;;5036762;28;20004;-81
2022/01/02 00:57:23;;;;;;;;;;;10.80;99.90;;;;;;5018841;28;20028;-81
2022/01/02 01:00:07;;;;;;;;;;;10.80;99.90;;;;;;5035543;28;19916;-81
2022/01/02 01:02:59;;;;;;;;;;;10.80;99.90;;;;;;5018403;28;19917;-80
2022/01/02 01:05:28;;;;;;;;;;;10.80;99.90;;;;;;5033363;28;19960;-80
2022/01/02 01:07:55;;;;;;;;;;;10.80;99.90;;;;;;5036262;28;19949;-79
2022/01/02 01:10:21;;;;;;;;;;;10.80;99.90;;;;;;5018770;28;19909;-80
2022/01/02 01:12:52;;;;;;;;;;;10.80;99.90;;;;;;5036522;28;19909;-80
2022/01/02 01:15:18;;;;;;;;;;;10.90;99.90;;;;;;5036290;28;20316;-81
2022/01/02 01:17:45;;;;;;;;;;;10.90;99.90;;;;;;5035968;28;19920;-81
2022/01/02 01:20:14;;;;;;;;;;;10.90;99.90;;;;;;5036257;28;19909;-81
2022/01/02 01:22:43;;;;;;;;;;;10.90;99.90;;;;;;5036106;28;19913;-79
2022/01/02 01:25:16;;;;;;;;;;;10.90;99.90;;;;;;5036404;28;20288;-80
2022/01/02 01:27:42;;;;;;;;;;;10.90;99.90;;;;;;5033486;28;20308;-81
2022/01/02 01:30:08;;;;;;;;;;;10.90;99.90;;;;;;5018521;28;19909;-81
2022/01/02 01:32:34;;;;;;;;;;;10.90;99.90;;;;;;5017991;28;19967;-81
2022/01/02 01:35:00;;;;;;;;;;;10.90;99.90;;;;;;5018420;28;20318;-80
2022/01/02 01:37:25;;;;;;;;;;;10.90;99.90;;;;;;5024426;28;19912;-80
2022/01/02 01:39:51;;;;;;;;;;;10.90;99.90;;;;;;5055808;28;19913;-81
2022/01/02 01:42:27;;;;;;;;;;;10.90;99.90;;;;;;5066888;28;19948;-80
2022/01/02 01:45:28;;;;;;;;;;;10.90;99.90;;;;;;5050415;28;19916;-79
2022/01/02 01:47:39;;;;;;;;;;;10.90;99.90;;;;;;5036089;28;19921;-78
2022/01/02 01:50:04;;;;;;;;;;;10.90;99.90;;;;;;5035742;28;19913;-79
2022/01/02 01:52:30;;;;;;;;;;;10.90;99.90;;;;;;5033328;28;20014;-81
2022/01/02 01:54:55;;;;;;;;;;;10.90;99.90;;;;;;5055556;28;20303;-80
2022/01/02 01:57:21;;;;;;;;;;;10.90;99.90;;;;;;5055555;28;20209;-80
2022/01/02 01:59:48;;;;;;;;;;;10.80;99.90;;;;;;5055066;28;19979;-79
2022/01/02 02:02:14;;;;;;;;;;;10.90;99.90;;;;;;5025087;28;19920;-80
2022/01/02 02:04:40;;;;;;;;;;;10.90;99.90;;;;;;5017799;28;19914;-82
2022/01/02 02:07:05;;;;;;;;;;;10.90;99.90;;;;;;5046861;28;19946;-80
2022/01/02 02:10:23;;;;;;;;;;;10.90;99.90;;;;;;5055318;28;20283;-80
2022/01/02 02:12:19;;;;;;;;;;;10.90;99.90;;;;;;5040316;28;20007;-79
2022/01/02 02:14:45;;;;;;;;;;;10.90;99.90;;;;;;5037521;28;19999;-80
2022/01/02 02:17:11;;;;;;;;;;;10.90;99.90;;;;;;5037715;28;20193;-80
2022/01/02 02:19:36;;;;;;;;;;;10.90;99.90;;;;;;5037489;28;19952;-79
2022/01/02 02:22:03;;;;;;;;;;;10.90;99.90;;;;;;5036769;28;20326;-80
2022/01/02 02:24:28;;;;;;;;;;;10.90;99.90;;;;;;5037492;28;20208;-79
2022/01/02 02:26:54;;;;;;;;;;;10.90;99.90;;;;;;5033705;28;19933;-79
2022/01/02 02:29:19;;;;;;;;;;;10.90;99.90;;;;;;5037254;28;19924;-79
2022/01/02 02:31:45;;;;;;;;;;;10.90;99.90;;;;;;5035885;28;19913;-80
2022/01/02 02:34:11;;;;;;;;;;;10.80;99.90;;;;;;5055161;28;19909;-79
2022/01/02 02:36:36;;;;;;;;;;;10.90;99.90;;;;;;5037426;28;19909;-81
2022/01/02 02:39:03;;;;;;;;;;;10.80;99.90;;;;;;5054209;28;19913;-79
2022/01/02 02:41:33;;;;;;;;;;;10.90;99.90;;;;;;5054156;28;19995;-80
2022/01/02 02:44:06;;;;;;;;;;;10.90;99.90;;;;;;5055068;28;19913;-80
2022/01/02 02:49:15;;;;;;;;;;;10.90;99.90;;;;;;5055170;28;19958;-80
2022/01/02 02:51:53;;;;;;;;;;;11.00;99.90;;;;;;5046995;28;20011;-80
2022/01/02 02:54:23;;;;;;;;;;;11.00;99.90;;;;;;5022583;28;20311;-79
2022/01/02 02:56:59;;;;;;;;;;;11.10;99.90;;;;;;5036424;28;19956;-80
2022/01/02 02:59:30;;;;;;;;;;;11.10;99.90;;;;;;5054314;28;20559;-81
2022/01/02 03:01:56;;;;;;;;;;;11.10;99.90;;;;;;5024367;28;19921;-82
2022/01/02 03:04:22;;;;;;;;;;;11.10;99.90;;;;;;5034966;28;20304;-79
2022/01/02 03:06:47;;;;;;;;;;;11.20;99.90;;;;;;5030524;28;19917;-78
2022/01/02 03:09:13;;;;;;;;;;;11.20;99.90;;;;;;5051295;28;19913;-79
2022/01/02 03:11:40;;;;;;;;;;;11.20;99.90;;;;;;5026963;28;19914;-81
2022/01/02 03:14:07;;;;;;;;;;;11.30;99.90;;;;;;5020658;28;20007;-80
2022/01/02 03:16:33;;;;;;;;;;;11.30;99.90;;;;;;5033771;28;19913;-80
2022/01/02 03:18:58;;;;;;;;;;;11.30;99.90;;;;;;5041387;28;19947;-81
2022/01/02 03:21:24;;;;;;;;;;;11.30;99.90;;;;;;5047572;28;19921;-82
2022/01/02 03:23:50;;;;;;;;;;;11.30;99.90;;;;;;5037107;28;19980;-81
2022/01/02 03:26:16;;;;;;;;;;;11.40;99.90;;;;;;5038663;28;19980;-81
2022/01/02 03:28:42;;;;;;;;;;;11.40;99.90;;;;;;5039325;28;19913;-80
2022/01/02 03:31:07;;;;;;;;;;;11.40;99.90;;;;;;5038812;28;20216;-80
2022/01/02 03:33:33;;;;;;;;;;;11.40;99.90;;;;;;5054190;28;19959;-81
2022/01/02 03:35:59;;;;;;;;;;;11.40;99.90;;;;;;5020996;28;19909;-81
2022/01/02 03:38:24;;;;;;;;;;;11.50;99.90;;;;;;5036491;28;19959;-81
2022/01/02 03:40:50;;;;;;;;;;;11.50;99.90;;;;;;5040630;28;20220;-79
2022/01/02 03:43:15;;;;;;;;;;;11.50;99.90;;;;;;5038831;28;19925;-81
2022/01/02 03:45:41;;;;;;;;;;;11.60;99.90;;;;;;5036989;28;20197;-81
2022/01/02 03:48:07;;;;;;;;;;;11.50;99.90;;;;;;5038204;28;19909;-81
2022/01/02 03:50:32;;;;;;;;;;;11.60;99.90;;;;;;5049359;28;19912;-81
2022/01/02 03:52:58;;;;;;;;;;;11.60;99.90;;;;;;5025649;28;19958;-82
2022/01/02 03:55:23;;;;;;;;;;;11.60;99.90;;;;;;5037978;28;20240;-81
2022/01/02 03:57:50;;;;;;;;;;;11.60;99.90;;;;;;5037879;28;19920;-81
2022/01/02 04:00:16;;;;;;;;;;;11.70;99.90;;;;;;5037855;28;19984;-82
2022/01/02 04:02:42;;;;;;;;;;;11.70;99.90;;;;;;5037957;28;20267;-80
2022/01/02 04:05:09;;;;;;;;;;;11.70;99.90;;;;;;5026582;28;19920;-80
2022/01/02 04:07:35;;;;;;;;;;;11.70;99.90;;;;;;5027091;28;20330;-82
2022/01/02 04:10:04;;;;;;;;;;;11.70;99.90;;;;;;5037938;28;19921;-81
2022/01/02 04:12:30;;;;;;;;;;;11.70;99.90;;;;;;5020109;28;19913;-80
2022/01/02 04:14:55;;;;;;;;;;;11.70;99.90;;;;;;5037810;28;19991;-81
2022/01/02 04:17:22;;;;;;;;;;;11.70;99.90;;;;;;5019689;28;19972;-79
2022/01/02 04:19:48;;;;;;;;;;;11.60;99.90;;;;;;5036434;28;19909;-80
2022/01/02 04:22:13;;;;;;;;;;;11.60;99.90;;;;;;5028943;28;20139;-79
2022/01/02 04:24:39;;;;;;;;;;;11.60;99.90;;;;;;5043808;28;19917;-79
2022/01/02 04:27:04;;;;;;;;;;;11.50;99.90;;;;;;5040768;28;19924;-79
2022/01/02 04:29:30;;;;;;;;;;;11.50;99.90;;;;;;5037519;28;20417;-80
2022/01/02 04:31:56;;;;;;;;;;;11.50;99.90;;;;;;5019754;28;19913;-80
2022/01/02 04:34:21;;;;;;;;;;;11.60;99.90;;;;;;5037335;28;19920;-80
2022/01/02 04:36:47;;;;;;;;;;;11.50;99.90;;;;;;5041573;28;20607;-80
2022/01/02 04:39:12;;;;;;;;;;;11.60;99.90;;;;;;5057159;28;19917;-79
2022/01/02 04:41:38;;;;;;;;;;;11.60;99.90;;;;;;5039222;28;19923;-78
2022/01/02 04:44:04;;;;;;;;;;;11.60;99.90;;;;;;5039442;28;19932;-80
2022/01/02 04:46:29;;;;;;;;;;;11.60;99.90;;;;;;5036564;28;19924;-79
2022/01/02 04:48:55;;;;;;;;;;;11.60;99.90;;;;;;5019447;28;19917;-80
2022/01/02 04:51:20;;;;;;;;;;;11.60;99.90;;;;;;5019534;28;20428;-79
2022/01/02 04:53:48;;;;;;;;;;;11.60;99.90;;;;;;5056573;28;19917;-79
2022/01/02 04:56:14;;;;;;;;;;;11.60;99.90;;;;;;5039072;28;19913;-80
2022/01/02 04:58:40;;;;;;;;;;;11.60;99.90;;;;;;5037486;28;19963;-80
2022/01/02 05:01:11;;;;;;;;;;;11.60;99.90;;;;;;5044602;28;20026;-79
2022/01/02 05:03:37;;;;;;;;;;;11.60;99.90;;;;;;5056557;28;20288;-78
2022/01/02 05:06:03;;;;;;;;;;;11.60;99.90;;;;;;5056490;28;19948;-79
2022/01/02 05:08:28;;;;;;;;;;;11.60;99.90;;;;;;5021157;28;19983;-80
2022/01/02 05:10:54;;;;;;;;;;;11.60;99.90;;;;;;5036712;28;20208;-79
2022/01/02 05:13:19;;;;;;;;;;;11.70;99.90;;;;;;5019005;28;19956;-79
2022/01/02 05:15:45;;;;;;;;;;;11.70;99.90;;;;;;5036498;28;19916;-80
2022/01/02 05:18:11;;;;;;;;;;;11.70;99.90;;;;;;5018480;28;20327;-80
2022/01/02 05:20:36;;;;;;;;;;;11.70;99.90;;;;;;5036526;28;19909;-81
2022/01/02 05:23:02;;;;;;;;;;;11.70;99.90;;;;;;5048792;28;19919;-80
2022/01/02 05:25:27;;;;;;;;;;;11.70;99.90;;;;;;5056219;28;19999;-80
2022/01/02 05:27:53;;;;;;;;;;;11.70;99.90;;;;;;5055346;28;19913;-79
2022/01/02 05:30:18;;;;;;;;;;;11.70;99.90;;;;;;5056347;28;19913;-80
2022/01/02 05:32:44;;;;;;;;;;;11.70;99.90;;;;;;5038258;28;19913;-81
2022/01/02 05:35:10;;;;;;;;;;;11.70;99.90;;;;;;5056238;28;20340;-80
2022/01/02 05:37:35;;;;;;;;;;;11.70;99.90;;;;;;5043577;28;19943;-79
2022/01/02 05:40:01;;;;;;;;;;;11.70;99.90;;;;;;5075985;28;19919;-79
2022/01/02 05:42:27;;;;;;;;;;;11.70;99.90;;;;;;5075648;28;20003;-79
2022/01/02 05:44:52;;;;;;;;;;;11.70;99.90;;;;;;5058019;28;20002;-80
2022/01/02 05:47:18;;;;;;;;;;;11.70;99.90;;;;;;5046329;28;19943;-79
2022/01/02 05:49:44;;;;;;;;;;;11.70;99.90;;;;;;5037735;28;20012;-79
2022/01/02 05:52:09;;;;;;;;;;;11.70;99.90;;;;;;5037542;28;19927;-79
2022/01/02 05:54:35;;;;;;;;;;;11.70;99.90;;;;;;5055418;28;19987;-79
2022/01/02 05:57:01;;;;;;;;;;;11.70;99.90;;;;;;5035744;28;20193;-80
2022/01/02 05:59:26;;;;;;;;;;;11.70;99.90;;;;;;5017904;28;20012;-79
2022/01/02 06:01:52;;;;;;;;;;;11.70;99.90;;;;;;5037640;28;19916;-81
2022/01/02 06:04:17;;;;;;;;;;;11.70;99.90;;;;;;5046291;28;20200;-79
2022/01/02 06:06:44;;;;;;;;;;;11.60;99.90;;;;;;5037846;28;19913;-78
2022/01/02 06:09:10;;;;;;;;;;;11.60;99.90;;;;;;5039891;28;19924;-80
2022/01/02 06:11:35;;;;;;;;;;;11.50;99.90;;;;;;5053537;28;19917;-80
2022/01/02 06:14:01;;;;;;;;;;;11.50;99.90;;;;;;5037681;28;19963;-79
2022/01/02 06:16:26;;;;;;;;;;;11.50;99.90;;;;;;5055379;28;20292;-80
2022/01/02 06:18:53;;;;;;;;;;;11.40;99.90;;;;;;5037028;28;19952;-80
2022/01/02 06:21:19;;;;;;;;;;;11.40;99.90;;;;;;5055408;28;19909;-79
2022/01/02 06:23:45;;;;;;;;;;;11.40;99.90;;;;;;5054771;28;19913;-79
2022/01/02 06:26:10;;;;;;;;;;;11.40;99.90;;;;;;5036843;28;19927;-80
2022/01/02 06:28:38;;;;;;;;;;;11.40;99.90;;;;;;5030473;28;19966;-80
2022/01/02 06:31:04;;;;;;;;;;;11.40;99.90;;;;;;5037340;28;19912;-79
2022/01/02 06:33:30;;;;;;;;;;;11.40;99.90;;;;;;5037392;28;20181;-80
2022/01/02 06:35:55;;;;;;;;;;;11.40;99.90;;;;;;5037342;28;20378;-80
2022/01/02 06:38:21;;;;;;;;;;;11.40;99.90;;;;;;5023412;28;20227;-79
2022/01/02 06:40:48;;;;;;;;;;;11.40;99.90;;;;;;5031418;28;19912;-79
2022/01/02 06:43:15;;;;;;;;;;;11.40;99.90;;;;;;5037277;28;20012;-80
2022/01/02 06:45:41;;;;;;;;;;;11.30;99.90;;;;;;5037233;28;19924;-78
2022/01/02 06:48:07;;;;;;;;;;;11.30;99.90;;;;;;5033837;28;19921;-80
2022/01/02 06:50:32;;;;;;;;;;;11.30;99.90;;;;;;5037222;28;19909;-79
2022/01/02 06:52:58;;;;;;;;;;;11.30;99.90;;;;;;5055149;28;19913;-80
2022/01/02 06:55:25;;;;;;;;;;;11.30;99.90;;;;;;5037732;28;19914;-80
2022/01/02 06:57:50;;;;;;;;;;;11.20;99.90;;;;;;5036661;28;20228;-79
2022/01/02 07:00:16;;;;;;;;;;;11.30;99.90;;;;;;5039150;28;19924;-80
2022/01/02 07:02:41;;;;;;;;;;;11.30;99.90;;;;;;5052189;28;19916;-80
2022/01/02 07:05:07;;;;;;;;;;;11.20;99.90;;;;;;5041292;28;19916;-81
2022/01/02 07:07:38;;;;;;;;;;;11.20;99.90;;;;;;5058799;28;19917;-80
2022/01/02 07:10:04;;;;;;;;;;;11.20;99.90;;;;;;5038862;28;19967;-79
2022/01/02 07:12:29;;;;;;;;;;;11.20;99.90;;;;;;5047504;28;19916;-80
2022/01/02 07:14:55;;;;;;;;;;;11.20;99.90;;;;;;5057530;28;19913;-79
2022/01/02 07:17:20;;;;;;;;;;;11.20;99.90;;;;;;5056540;28;19971;-79
2022/01/02 07:19:46;;;;;;;;;;;11.20;99.90;;;;;;5040052;28;19923;-80
2022/01/02 07:22:12;;;;;;;;;;;11.20;99.90;;;;;;5057654;28;19920;-79
2022/01/02 07:24:39;;;;;;;;;;;11.10;99.90;;;;;;5042272;28;19960;-79
2022/01/02 07:27:05;;;;;;;;;;;11.20;99.90;;;;;;5054163;28;19920;-81
2022/01/02 07:29:30;;;;;;;;;;;11.10;99.90;;;;;;5057567;28;19917;-81
2022/01/02 07:31:56;;;;;;;;;;;11.10;99.90;;;;;;5040671;28;20003;-78
2022/01/02 07:34:21;;;;;;;;;;;11.10;99.90;;;;;;5058377;28;19912;-80
2022/01/02 07:36:47;;;;;;;;;;;11.20;99.90;;;;;;5059262;28;19955;-79
2022/01/02 07:39:13;;;;;;;;;;;11.10;99.90;;;;;;5060289;28;19920;-80
2022/01/02 07:41:39;;;;;;;;;;;11.20;99.90;;;;;;5050894;28;19921;-80
2022/01/02 07:44:05;;;;;;;;;;;11.20;99.90;;;;;;5057674;28;19952;-79
2022/01/02 07:46:31;;;;;;;;;;;11.20;99.90;;;;;;5057774;28;19959;-79
2022/01/02 07:48:56;;;;;;;;;;;11.30;99.90;;;;;;5055672;28;19921;-79
2022/01/02 07:51:22;;;;;;;;;;;11.30;99.90;;;;;;5056204;28;19939;-80
2022/01/02 07:53:48;;;;;;;;;;;11.30;99.90;;;;;;5036045;28;19952;-79
2022/01/02 07:56:14;;;;;;;;;;;11.30;99.90;;;;;;5055727;28;20016;-79
2022/01/02 07:58:39;;;;;;;;;;;11.30;99.90;;;;;;5035873;28;19909;-80
2022/01/02 08:01:05;;;;;;;;;;;11.40;99.90;;;;;;5053472;28;19920;-80
2022/01/02 08:03:30;;;;;;;;;;;11.40;99.90;;;;;;5036345;28;20538;-80
2022/01/02 08:05:56;;;;;;;;;;;11.40;99.90;;;;;;5036808;28;19931;-76
2022/01/02 08:08:21;;;;;;;;;;;11.50;99.90;;;;;;5037797;28;19966;-80
2022/01/02 08:10:47;;;;;;;;;;;11.50;99.90;;;;;;5034146;28;20308;-81
2022/01/02 08:13:12;;;;;;;;;;;11.50;99.90;;;;;;5030227;28;19967;-76
2022/01/02 08:15:38;;;;;;;;;;;11.60;99.90;;;;;;5055475;28;19912;-78
2022/01/02 08:18:04;;;;;;;;;;;11.60;99.90;;;;;;5055030;28;19952;-82
2022/01/02 08:20:29;;;;;;;;;;;11.70;99.90;;;;;;5055727;28;19943;-80
2022/01/02 08:22:56;;;;;;;;;;;11.70;99.90;;;;;;5055364;28;19916;-77
2022/01/02 08:25:22;;;;;;;;;;;11.70;99.90;;;;;;5054745;28;19917;-79
2022/01/02 08:27:47;;;;;;;;;;;11.70;99.90;;;;;;5055180;28;19967;-79
2022/01/02 08:30:13;;;;;;;;;;;11.70;99.90;;;;;;5055348;28;20560;-78
2022/01/02 08:32:39;;;;;;;;;;;11.80;99.90;;;;;;5038230;28;19912;-80
2022/01/02 08:35:05;;;;;;;;;;;11.80;99.90;;;;;;5056384;28;19915;-78
2022/01/02 08:37:31;;;;;;;;;;;11.80;99.90;;;;;;5038259;28;20612;-79
2022/01/02 08:39:56;;;;;;;;;;;11.80;99.90;;;;;;5038587;28;19943;-80
2022/01/02 08:42:22;;;;;;;;;;;11.80;99.90;;;;;;5038793;28;19921;-81
2022/01/02 08:44:47;;;;;;;;;;;11.90;99.90;;;;;;5057015;28;20328;-80
2022/01/02 08:47:13;;;;;;;;;;;11.90;99.90;;;;;;5056850;28;20197;-79
2022/01/02 08:49:39;;;;;;;;;;;11.90;99.90;;;;;;5037025;28;19928;-79
2022/01/02 08:52:04;;;;;;;;;;;11.90;99.90;;;;;;5037758;28;19924;-81
2022/01/02 08:54:30;;;;;;;;;;;11.90;99.90;;;;;;5055407;28;19916;-80
2022/01/02 08:56:56;;;;;;;;;;;11.90;99.90;;;;;;5055103;28;19923;-80
2022/01/02 08:59:24;;;;;;;;;;;11.90;99.90;;;;;;5037028;28;21557;-81
2022/01/02 09:01:51;;;;;;;;;;;11.90;99.90;;;;;;5047498;28;20014;-78
2022/01/02 09:04:16;;;;;;;;;;;11.90;99.90;;;;;;5045960;28;20224;-81
2022/01/02 09:06:42;;;;;;;;;;;12.00;99.90;;;;;;5037838;28;19924;-80
2022/01/02 09:09:08;;;;;;;;;;;12.00;99.90;;;;;;5036821;28;19909;-80
2022/01/02 09:11:34;;;;;;;;;;;12.00;99.90;;;;;;5035060;28;19920;-77
2022/01/02 09:14:01;;;;;;;;;;;12.00;99.90;;;;;;5035312;28;19971;-77
2022/01/02 09:16:28;;;;;;;;;;;12.00;99.90;;;;;;5041756;28;19917;-79
2022/01/02 09:18:54;;;;;;;;;;;12.00;99.90;;;;;;5055650;28;20006;-80
2022/01/02 09:21:20;;;;;;;;;;;12.10;99.90;;;;;;5052581;28;19921;-78
2022/01/02 09:23:46;;;;;;;;;;;12.10;99.90;;;;;;5056425;28;19942;-81
2022/01/02 09:26:12;;;;;;;;;;;12.10;99.90;;;;;;5055465;28;19923;-84
2022/01/02 09:28:37;;;;;;;;;;;12.10;99.90;;;;;;5055056;28;19909;-80
2022/01/02 09:31:03;;;;;;;;;;;12.00;99.90;;;;;;5054321;28;19988;-76
2022/01/02 09:33:29;;;;;;;;;;;11.90;99.90;;;;;;5054185;28;19948;-80
2022/01/02 09:35:54;;;;;;;;;;;11.80;99.90;;;;;;5055866;28;19999;-82
2022/01/02 09:38:20;;;;;;;;;;;11.80;99.90;;;;;;5037550;28;19916;-81
2022/01/02 09:40:46;;;;;;;;;;;11.90;99.90;;;;;;5055032;28;19916;-82
2022/01/02 09:43:20;;;;;;;;;;;11.90;99.90;;;;;;5113130;27;19916;-81
2022/01/02 09:45:47;;;;;;;;;;;11.80;99.90;;;;;;5098697;28;20326;-80
2022/01/02 09:48:13;;;;;;;;;;;11.80;99.90;;;;;;5097401;28;20192;-80
2022/01/02 09:50:39;;;;;;;;;;;11.80;99.90;;;;;;5100350;28;20019;-81
2022/01/02 09:53:05;;;;;;;;;;;11.80;99.90;;;;;;5105917;28;19999;-82
2022/01/02 09:55:30;;;;;;;;;;;11.90;99.90;;;;;;5108157;28;20031;-81
2022/01/02 09:57:59;;;;;;;;;;;11.80;99.90;;;;;;5093257;28;19916;-80
2022/01/02 10:00:25;;;;;;;;;;;11.90;99.90;;;;;;5089601;28;19920;-81
2022/01/02 10:03:05;;;;;;;;;;;11.90;99.90;;;;;;5099719;28;19924;-80
2022/01/02 10:05:49;;;;;;;;;;;11.90;99.90;;;;;;5101053;28;19955;-80
2022/01/02 10:08:22;;;;;;;;;;;12.00;99.90;;;;;;5105482;28;19919;-81
2022/01/02 10:10:47;;;;;;;;;;;12.00;99.90;;;;;;5101903;28;19966;-79
2022/01/02 10:13:13;;;;;;;;;;;12.00;99.90;;;;;;5104548;28;19951;-80
2022/01/02 10:15:38;;;;;;;;;;;12.00;99.90;;;;;;5100297;28;20015;-78
2022/01/02 10:18:08;;;;;;;;;;;12.00;99.90;;;;;;5107520;28;19912;-81
2022/01/02 10:20:37;;;;;;;;;;;12.00;99.90;;;;;;5098644;28;20353;-79
2022/01/02 10:23:04;;;;;;;;;;;12.00;99.90;;;;;;5085014;28;19924;-80
2022/01/02 10:25:41;;;;;;;;;;;11.90;99.90;;;;;;5083104;28;19946;-82
2022/01/02 10:28:28;;;;;;;;;;;11.90;99.90;;;;;;5085922;28;20222;-80
2022/01/02 10:30:56;;;;;;;;;;;11.80;99.90;;;;;;5086878;28;20321;-82
2022/01/02 10:33:22;;;;;;;;;;;11.80;99.90;;;;;;5085861;28;19916;-79
2022/01/02 10:35:55;;;;;;;;;;;11.80;99.90;;;;;;5084852;28;20238;-81
2022/01/02 10:38:20;;;;;;;;;;;11.80;99.90;;;;;;5086372;28;19923;-78
2022/01/02 10:40:47;;;;;;;;;;;11.90;99.90;;;;;;5086410;28;19916;-81
2022/01/02 10:43:27;;;;;;;;;;;11.80;99.90;;;;;;5107199;28;19978;-81
2022/01/02 10:45:55;;;;;;;;;;;11.90;99.90;;;;;;5106201;28;19915;-81
2022/01/02 10:48:34;;;;;;;;;;;11.90;99.90;;;;;;5106320;28;20397;-78
2022/01/02 10:51:05;;;;;;;;;;;11.90;99.90;;;;;;5106235;28;20370;-77
2022/01/02 10:53:33;;;;;;;;;;;11.90;99.90;;;;;;5082561;28;19920;-77
2022/01/02 10:55:59;;;;;;;;;;;12.00;99.90;;;;;;5077554;28;20726;-80
2022/01/02 10:58:25;;;;;;;;;;;12.00;99.90;;;;;;5094502;28;19916;-77
2022/01/02 11:00:51;;;;;;;;;;;12.00;99.90;;;;;;5096598;28;20307;-78
2022/01/02 11:03:22;;;;;;;;;;;12.10;99.90;;;;;;5078637;28;19931;-79
2022/01/02 11:05:48;;;;;;;;;;;12.10;99.90;;;;;;5092114;28;20053;-80
2022/01/02 11:08:15;;;;;;;;;;;12.20;99.90;;;;;;5076492;28;20023;-78
2022/01/02 11:10:41;;;;;;;;;;;12.30;99.90;;;;;;5077234;28;19920;-78
2022/01/02 11:13:07;;;;;;;;;;;12.30;99.90;;;;;;5076762;28;20006;-79
2022/01/02 11:15:34;;;;;;;;;;;12.30;99.90;;;;;;5075400;28;19920;-79
2022/01/02 11:17:59;;;;;;;;;;;12.30;99.90;;;;;;5074290;28;20295;-78
2022/01/02 11:20:26;;;;;;;;;;;12.40;99.90;;;;;;5092558;28;19997;-77
2022/01/02 11:23:12;;;;;;;;;;;12.40;99.90;;;;;;5075049;28;20192;-79
2022/01/02 11:25:56;;;;;;;;;;;12.40;99.90;;;;;;5091469;28;19937;-76
2022/01/02 11:28:25;;;;;;;;;;;12.40;99.90;;;;;;5074502;28;19912;-80
2022/01/02 11:30:51;;;;;;;;;;;12.40;99.90;;;;;;5075004;28;19916;-76
2022/01/02 11:33:19;;;;;;;;;;;12.30;99.90;;;;;;5091866;28;19923;-79
2022/01/02 11:35:47;;;;;;;;;;;12.30;99.90;;;;;;5074309;28;19938;-80
2022/01/02 11:38:15;;;;;;;;;;;12.20;99.90;;;;;;5091608;28;20002;-80
2022/01/02 11:40:43;;;;;;;;;;;12.20;99.90;;;;;;5074201;28;19920;-77
2022/01/02 11:43:09;;;;;;;;;;;12.20;99.90;;;;;;5072441;28;19966;-77
2022/01/02 11:45:34;;;;;;;;;;;12.30;99.90;;;;;;5091611;28;19970;-77
2022/01/02 11:48:01;;;;;;;;;;;12.20;99.90;;;;;;5074579;28;20712;-82
2022/01/02 11:50:34;;;;;;;;;;;12.20;99.90;;;;;;5073964;28;20196;-80
2022/01/02 11:53:09;;;;;;;;;;;12.20;99.90;;;;;;5069972;28;20302;-81
2022/01/02 11:55:35;;;;;;;;;;;12.20;99.90;;;;;;5091161;28;20054;-78
2022/01/02 11:58:01;;;;;;;;;;;12.20;99.90;;;;;;5075087;28;20031;-76
2022/01/02 12:00:47;;;;;;;;;;;12.10;99.90;;;;;;5077725;28;19927;-76
2022/01/02 12:03:41;;;;;;;;;;;12.10;99.90;;;;;;5075149;28;20083;-77
2022/01/02 12:06:15;;;;;;;;;;;12.20;99.90;;;;;;5041479;28;19916;-81
2022/01/02 12:08:41;;;;;;;;;;;12.20;99.90;;;;;;5075211;28;19991;-78
2022/01/02 12:11:25;;;;;;;;;;;12.20;99.90;;;;;;5075609;28;20020;-77
2022/01/02 12:14:01;;;;;;;;;;;12.20;99.90;;;;;;5072340;28;20014;-77
2022/01/02 12:16:37;;;;;;;;;;;12.20;99.90;;;;;;5090572;28;19920;-78
2022/01/02 12:19:04;;;;;;;;;;;12.20;99.90;;;;;;5090871;28;19916;-77
2022/01/02 12:21:31;;;;;;;;;;;12.20;99.90;;;;;;5074590;28;20327;-78
2022/01/02 12:23:57;;;;;;;;;;;12.20;99.90;;;;;;5073128;28;19924;-77
2022/01/02 12:26:27;;;;;;;;;;;12.20;99.90;;;;;;5075365;28;19911;-78
2022/01/02 12:28:58;;;;;;;;;;;12.20;99.90;;;;;;5073874;28;19948;-76
2022/01/02 12:31:27;;;;;;;;;;;12.20;99.90;;;;;;5088090;28;19995;-80
2022/01/02 12:33:54;;;;;;;;;;;12.20;99.90;;;;;;5090932;28;19916;-77
2022/01/02 12:36:20;;;;;;;;;;;12.20;99.90;;;;;;5076213;28;19922;-77
2022/01/02 12:38:56;;;;;;;;;;;12.20;99.90;;;;;;5091750;28;19916;-77
2022/01/02 12:41:23;;;;;;;;;;;12.20;99.90;;;;;;5075261;28;19931;-78
2022/01/02 12:43:59;;;;;;;;;;;12.10;99.90;;;;;;5091308;28;20006;-80
2022/01/02 12:46:37;;;;;;;;;;;12.10;99.90;;;;;;5091467;28;19930;-79
2022/01/02 12:49:03;;;;;;;;;;;12.10;99.90;;;;;;5076279;28;19923;-77
2022/01/02 12:51:30;;;;;;;;;;;12.10;99.90;;;;;;5075048;28;19920;-78
2022/01/02 12:54:00;;;;;;;;;;;12.10;99.90;;;;;;5072061;28;19916;-78
2022/01/02 12:56:32;;;;;;;;;;;12.00;99.90;;;;;;5065957;28;20383;-78
2022/01/02 12:59:16;;;;;;;;;;;12.00;99.90;;;;;;5094672;28;19915;-78
2022/01/02 13:02:01;;;;;;;;;;;12.00;99.90;;;;;;5102297;28;19938;-78
2022/01/02 13:04:29;;;;;;;;;;;12.00;99.90;;;;;;5060307;28;19929;-79
2022/01/02 13:06:56;;;;;;;;;;;12.00;99.90;;;;;;5115252;28;20389;-79
2022/01/02 13:09:25;;;;;;;;;;;12.00;99.90;;;;;;5104396;28;19920;-78
2022/01/02 13:11:51;;;;;;;;;;;12.10;99.90;;;;;;5096923;28;19945;-79
2022/01/02 13:14:33;;;;;;;;;;;12.10;99.90;;;;;;5094259;28;19916;-78
2022/01/02 13:16:59;;;;;;;;;;;12.10;99.90;;;;;;5095982;28;19908;-79
2022/01/02 13:19:25;;;;;;;;;;;12.10;99.90;;;;;;5107278;28;20007;-79
2022/01/02 13:21:51;;;;;;;;;;;12.10;99.90;;;;;;5103630;28;19966;-80
2022/01/02 13:24:24;;;;;;;;;;;12.10;99.90;;;;;;5097351;28;19969;-78
2022/01/02 13:26:50;;;;;;;;;;;12.20;99.90;;;;;;5098146;28;19915;-77
2022/01/02 13:29:23;;;;;;;;;;;12.20;99.90;;;;;;5115913;28;19912;-79
2022/01/02 13:31:53;;;;;;;;;;;12.20;99.90;;;;;;5115945;28;19908;-78
2022/01/02 13:34:26;;;;;;;;;;;12.10;99.90;;;;;;5097622;28;19960;-79
2022/01/02 13:36:55;;;;;;;;;;;12.10;99.90;;;;;;5115783;28;19949;-77
2022/01/02 13:39:36;;;;;;;;;;;12.00;99.90;;;;;;5115621;28;19915;-78
2022/01/02 13:42:02;;;;;;;;;;;12.00;99.90;;;;;;5115592;28;20004;-79
2022/01/02 13:44:34;;;;;;;;;;;12.00;99.90;;;;;;5097452;28;19943;-78
2022/01/02 13:47:00;;;;;;;;;;;12.00;99.90;;;;;;5097638;28;19915;-78
2022/01/02 13:49:38;;;;;;;;;;;12.00;99.90;;;;;;5097370;28;19912;-80
2022/01/02 13:52:04;;;;;;;;;;;12.00;99.90;;;;;;5097494;28;20202;-79
2022/01/02 13:54:29;;;;;;;;;;;12.00;99.90;;;;;;5097342;28;19957;-79
2022/01/02 13:56:56;;;;;;;;;;;12.00;99.90;;;;;;5115582;28;19912;-80
2022/01/02 13:59:25;;;;;;;;;;;12.10;99.90;;;;;;5115408;28;19961;-78
2022/01/02 14:01:51;;;;;;;;;;;12.10;99.90;;;;;;5115202;28;19951;-79
2022/01/02 14:04:19;;;;;;;;;;;12.20;99.90;;;;;;5092955;28;19973;-78
2022/01/02 14:06:45;;;;;;;;;;;12.10;99.90;;;;;;5076929;28;19930;-79
2022/01/02 14:09:13;;;;;;;;;;;12.20;99.90;;;;;;5094418;28;20607;-79
2022/01/02 14:11:41;;;;;;;;;;;12.10;99.90;;;;;;5093328;28;19912;-78
2022/01/02 14:14:21;;;;;;;;;;;12.00;99.90;;;;;;5076665;28;19919;-80
2022/01/02 14:19:33;;;;;;;;;;;11.70;99.90;;;;;;5096713;28;19916;-79
2022/01/02 14:22:02;;;;;;;;;;;11.60;99.90;;;;;;5093325;28;19937;-81
2022/01/02 14:24:28;;;;;;;;;;;11.60;99.90;;;;;;5090462;28;19912;-79